sensor_id;sensor_type;location;lat;lon;timestamp;temperature;humidity
12870;DHT22;6503;48.572;13.460;2023-01-06T00:02:09;7.20;99.90
12870;DHT22;6503;48.572;13.460;2023-01-06T00:04:36;7.20;99.90
12870;DHT22;6503;48.572;13.460;2023-01-06T00:07:16;7.20;99.90
12870;DHT22;6503;48.572;13.460;2023-01-06T00:10:08;7.10;99.90
12870;DHT22;6503;48.572;13.460;2023-01-06T00:12:37;7.10;99.90
12870;DHT22;6503;48.572;13.460;2023-01-06T00:15:05;7.20;99.90
12870;DHT22;6503;48.572;13.460;2023-01-06T00:17:33;7.10;99.90
12870;DHT22;6503;48.572;13.460;2023-01-06T00:20:01;7.20;99.90
12870;DHT22;6503;48.572;13.460;2023-01-06T00:22:28;7.20;99.90
12870;DHT22;6503;48.572;13.460;2023-01-06T00:24:55;7.30;99.90
12870;DHT22;6503;48.572;13.460;2023-01-06T00:27:29;7.20;99.90
12870;DHT22;6503;48.572;13.460;2023-01-06T00:29:57;7.20;99.90
12870;DHT22;6503;48.572;13.460;2023-01-06T00:32:24;7.30;99.90
12870;DHT22;6503;48.572;13.460;2023-01-06T00:34:52;7.20;99.90
12870;DHT22;6503;48.572;13.460;2023-01-06T00:37:23;7.20;99.90
12870;DHT22;6503;48.572;13.460;2023-01-06T00:39:50;7.20;99.90
12870;DHT22;6503;48.572;13.460;2023-01-06T00:42:17;7.20;99.90
12870;DHT22;6503;48.572;13.460;2023-01-06T00:44:48;7.20;99.90
12870;DHT22;6503;48.572;13.460;2023-01-06T00:47:15;7.30;99.90
12870;DHT22;6503;48.572;13.460;2023-01-06T00:49:43;7.30;99.90
12870;DHT22;6503;48.572;13.460;2023-01-06T00:52:11;7.30;99.90
12870;DHT22;6503;48.572;13.460;2023-01-06T00:54:38;7.30;99.90
12870;DHT22;6503;48.572;13.460;2023-01-06T00:57:07;7.30;99.90
12870;DHT22;6503;48.572;13.460;2023-01-06T00:59:37;7.20;99.90
12870;DHT22;6503;48.572;13.460;2023-01-06T01:02:06;7.30;99.90
12870;DHT22;6503;48.572;13.460;2023-01-06T01:04:34;7.30;99.90
12870;DHT22;6503;48.572;13.460;2023-01-06T01:07:02;7.20;99.90
12870;DHT22;6503;48.572;13.460;2023-01-06T01:09:30;7.20;99.90
12870;DHT22;6503;48.572;13.460;2023-01-06T01:11:59;7.30;99.90
12870;DHT22;6503;48.572;13.460;2023-01-06T01:14:37;7.20;99.90
12870;DHT22;6503;48.572;13.460;2023-01-06T01:17:07;7.20;99.90
12870;DHT22;6503;48.572;13.460;2023-01-06T01:19:37;7.10;99.90
12870;DHT22;6503;48.572;13.460;2023-01-06T01:22:05;7.10;99.90
12870;DHT22;6503;48.572;13.460;2023-01-06T01:24:33;7.10;99.90
12870;DHT22;6503;48.572;13.460;2023-01-06T01:27:00;7.10;99.90
12870;DHT22;6503;48.572;13.460;2023-01-06T01:29:33;7.10;99.90
12870;DHT22;6503;48.572;13.460;2023-01-06T01:32:10;7.10;99.90
12870;DHT22;6503;48.572;13.460;2023-01-06T01:34:43;7.20;99.90
12870;DHT22;6503;48.572;13.460;2023-01-06T01:37:27;7.20;99.90
12870;DHT22;6503;48.572;13.460;2023-01-06T01:40:02;7.20;99.90
12870;DHT22;6503;48.572;13.460;2023-01-06T01:42:29;7.10;99.90
12870;DHT22;6503;48.572;13.460;2023-01-06T01:45:02;7.20;99.90
12870;DHT22;6503;48.572;13.460;2023-01-06T01:47:39;7.20;99.90
12870;DHT22;6503;48.572;13.460;2023-01-06T01:50:14;7.30;99.90
12870;DHT22;6503;48.572;13.460;2023-01-06T01:52:44;7.20;99.90
12870;DHT22;6503;48.572;13.460;2023-01-06T01:55:13;7.20;99.90
12870;DHT22;6503;48.572;13.460;2023-01-06T01:57:49;7.10;99.90
12870;DHT22;6503;48.572;13.460;2023-01-06T02:00:18;7.10;99.90
12870;DHT22;6503;48.572;13.460;2023-01-06T02:02:47;7.20;99.90
12870;DHT22;6503;48.572;13.460;2023-01-06T02:05:17;7.10;99.90
12870;DHT22;6503;48.572;13.460;2023-01-06T02:07:48;7.10;99.90
12870;DHT22;6503;48.572;13.460;2023-01-06T02:10:20;7.10;99.90
12870;DHT22;6503;48.572;13.460;2023-01-06T02:12:51;7.00;99.90
12870;DHT22;6503;48.572;13.460;2023-01-06T02:15:23;7.00;99.90
12870;DHT22;6503;48.572;13.460;2023-01-06T02:18:03;7.00;99.90
12870;DHT22;6503;48.572;13.460;2023-01-06T02:20:46;7.00;99.90
12870;DHT22;6503;48.572;13.460;2023-01-06T02:23:46;7.00;99.90
12870;DHT22;6503;48.572;13.460;2023-01-06T02:32:50;7.00;99.90
12870;DHT22;6503;48.572;13.460;2023-01-06T02:35:42;7.10;99.90
12870;DHT22;6503;48.572;13.460;2023-01-06T02:38:23;7.10;99.90
12870;DHT22;6503;48.572;13.460;2023-01-06T02:41:07;7.10;99.90
12870;DHT22;6503;48.572;13.460;2023-01-06T02:43:45;7.00;99.90
12870;DHT22;6503;48.572;13.460;2023-01-06T02:46:25;7.00;99.90
12870;DHT22;6503;48.572;13.460;2023-01-06T02:49:07;7.00;99.90
12870;DHT22;6503;48.572;13.460;2023-01-06T02:51:44;7.00;99.90
12870;DHT22;6503;48.572;13.460;2023-01-06T02:54:18;7.00;99.90
12870;DHT22;6503;48.572;13.460;2023-01-06T02:56:48;7.00;99.90
12870;DHT22;6503;48.572;13.460;2023-01-06T02:59:21;7.00;99.90
12870;DHT22;6503;48.572;13.460;2023-01-06T03:01:50;6.90;99.90
12870;DHT22;6503;48.572;13.460;2023-01-06T03:04:23;6.90;99.90
12870;DHT22;6503;48.572;13.460;2023-01-06T03:06:57;6.90;99.90
12870;DHT22;6503;48.572;13.460;2023-01-06T03:09:31;6.90;99.90
12870;DHT22;6503;48.572;13.460;2023-01-06T03:12:00;6.90;99.90
12870;DHT22;6503;48.572;13.460;2023-01-06T03:14:32;6.90;99.90
12870;DHT22;6503;48.572;13.460;2023-01-06T03:17:00;6.90;99.90
12870;DHT22;6503;48.572;13.460;2023-01-06T03:19:36;6.80;99.90
12870;DHT22;6503;48.572;13.460;2023-01-06T03:22:06;6.90;99.90
12870;DHT22;6503;48.572;13.460;2023-01-06T03:24:34;6.90;99.90
12870;DHT22;6503;48.572;13.460;2023-01-06T03:27:03;6.90;99.90
12870;DHT22;6503;48.572;13.460;2023-01-06T03:29:30;6.90;99.90
12870;DHT22;6503;48.572;13.460;2023-01-06T03:32:00;6.90;99.90
12870;DHT22;6503;48.572;13.460;2023-01-06T03:37:51;6.80;99.90
12870;DHT22;6503;48.572;13.460;2023-01-06T03:40:28;6.80;99.90
12870;DHT22;6503;48.572;13.460;2023-01-06T03:43:01;6.80;99.90
12870;DHT22;6503;48.572;13.460;2023-01-06T03:45:43;6.80;99.90
12870;DHT22;6503;48.572;13.460;2023-01-06T03:48:20;6.90;99.90
12870;DHT22;6503;48.572;13.460;2023-01-06T03:50:50;6.90;99.90
12870;DHT22;6503;48.572;13.460;2023-01-06T03:53:28;6.90;99.90
12870;DHT22;6503;48.572;13.460;2023-01-06T03:56:05;6.90;99.90
12870;DHT22;6503;48.572;13.460;2023-01-06T03:58:35;6.90;99.90
12870;DHT22;6503;48.572;13.460;2023-01-06T04:01:11;6.80;99.90
12870;DHT22;6503;48.572;13.460;2023-01-06T04:03:39;6.70;99.90
12870;DHT22;6503;48.572;13.460;2023-01-06T04:06:09;6.80;99.90
12870;DHT22;6503;48.572;13.460;2023-01-06T04:08:39;6.80;99.90
12870;DHT22;6503;48.572;13.460;2023-01-06T04:11:06;6.80;99.90
12870;DHT22;6503;48.572;13.460;2023-01-06T04:13:33;6.80;99.90
12870;DHT22;6503;48.572;13.460;2023-01-06T04:15:59;6.80;99.90
12870;DHT22;6503;48.572;13.460;2023-01-06T04:18:27;6.90;99.90
12870;DHT22;6503;48.572;13.460;2023-01-06T04:20:54;6.90;99.90
12870;DHT22;6503;48.572;13.460;2023-01-06T04:23:21;6.90;99.90
12870;DHT22;6503;48.572;13.460;2023-01-06T04:25:51;6.90;99.90
12870;DHT22;6503;48.572;13.460;2023-01-06T04:28:20;6.90;99.90
12870;DHT22;6503;48.572;13.460;2023-01-06T04:30:48;6.90;99.90
12870;DHT22;6503;48.572;13.460;2023-01-06T04:33:16;6.90;99.90
12870;DHT22;6503;48.572;13.460;2023-01-06T04:35:44;6.80;99.90
12870;DHT22;6503;48.572;13.460;2023-01-06T04:38:11;6.90;99.90
12870;DHT22;6503;48.572;13.460;2023-01-06T04:40:38;6.90;99.90
12870;DHT22;6503;48.572;13.460;2023-01-06T04:43:07;6.90;99.90
12870;DHT22;6503;48.572;13.460;2023-01-06T04:45:39;6.90;99.90
12870;DHT22;6503;48.572;13.460;2023-01-06T04:48:06;6.90;99.90
12870;DHT22;6503;48.572;13.460;2023-01-06T04:50:33;6.90;99.90
12870;DHT22;6503;48.572;13.460;2023-01-06T04:53:01;6.90;99.90
12870;DHT22;6503;48.572;13.460;2023-01-06T04:55:29;6.90;99.90
12870;DHT22;6503;48.572;13.460;2023-01-06T04:57:57;7.00;99.90
12870;DHT22;6503;48.572;13.460;2023-01-06T05:00:28;7.00;99.90
12870;DHT22;6503;48.572;13.460;2023-01-06T05:02:55;7.00;99.90
12870;DHT22;6503;48.572;13.460;2023-01-06T05:05:23;7.00;99.90
12870;DHT22;6503;48.572;13.460;2023-01-06T05:07:52;7.00;99.90
12870;DHT22;6503;48.572;13.460;2023-01-06T05:10:19;7.00;99.90
12870;DHT22;6503;48.572;13.460;2023-01-06T05:12:47;7.00;99.90
12870;DHT22;6503;48.572;13.460;2023-01-06T05:15:17;7.00;99.90
12870;DHT22;6503;48.572;13.460;2023-01-06T05:17:47;7.00;99.90
12870;DHT22;6503;48.572;13.460;2023-01-06T05:20:15;7.00;99.90
12870;DHT22;6503;48.572;13.460;2023-01-06T05:22:42;7.00;99.90
12870;DHT22;6503;48.572;13.460;2023-01-06T05:25:09;7.00;99.90
12870;DHT22;6503;48.572;13.460;2023-01-06T05:27:36;7.00;99.90
12870;DHT22;6503;48.572;13.460;2023-01-06T05:30:05;7.00;99.90
12870;DHT22;6503;48.572;13.460;2023-01-06T05:32:34;7.00;99.90
12870;DHT22;6503;48.572;13.460;2023-01-06T05:35:03;7.00;99.90
12870;DHT22;6503;48.572;13.460;2023-01-06T05:37:31;7.00;99.90
12870;DHT22;6503;48.572;13.460;2023-01-06T05:40:00;7.00;99.90
12870;DHT22;6503;48.572;13.460;2023-01-06T05:42:27;7.00;99.90
12870;DHT22;6503;48.572;13.460;2023-01-06T05:44:54;7.10;99.90
12870;DHT22;6503;48.572;13.460;2023-01-06T05:47:22;7.10;99.90
12870;DHT22;6503;48.572;13.460;2023-01-06T05:49:52;7.10;99.90
12870;DHT22;6503;48.572;13.460;2023-01-06T05:52:21;7.10;99.90
12870;DHT22;6503;48.572;13.460;2023-01-06T05:54:48;7.00;99.90
12870;DHT22;6503;48.572;13.460;2023-01-06T05:57:15;7.10;99.90
12870;DHT22;6503;48.572;13.460;2023-01-06T05:59:43;7.10;99.90
12870;DHT22;6503;48.572;13.460;2023-01-06T06:02:11;7.10;99.90
12870;DHT22;6503;48.572;13.460;2023-01-06T06:04:42;7.10;99.90
12870;DHT22;6503;48.572;13.460;2023-01-06T06:07:11;7.10;99.90
12870;DHT22;6503;48.572;13.460;2023-01-06T06:09:40;7.00;99.90
12870;DHT22;6503;48.572;13.460;2023-01-06T06:12:07;7.00;99.90
12870;DHT22;6503;48.572;13.460;2023-01-06T06:14:34;7.10;99.90
12870;DHT22;6503;48.572;13.460;2023-01-06T06:17:01;7.10;99.90
12870;DHT22;6503;48.572;13.460;2023-01-06T06:19:29;7.10;99.90
12870;DHT22;6503;48.572;13.460;2023-01-06T06:21:57;7.10;99.90
12870;DHT22;6503;48.572;13.460;2023-01-06T06:24:25;7.10;99.90
12870;DHT22;6503;48.572;13.460;2023-01-06T06:26:54;7.10;99.90
12870;DHT22;6503;48.572;13.460;2023-01-06T06:29:22;7.10;99.90
12870;DHT22;6503;48.572;13.460;2023-01-06T06:31:49;7.10;99.90
12870;DHT22;6503;48.572;13.460;2023-01-06T06:34:17;7.10;99.90
12870;DHT22;6503;48.572;13.460;2023-01-06T06:36:48;7.10;99.90
12870;DHT22;6503;48.572;13.460;2023-01-06T06:39:16;7.10;99.90
12870;DHT22;6503;48.572;13.460;2023-01-06T06:41:46;7.10;99.90
12870;DHT22;6503;48.572;13.460;2023-01-06T06:44:15;7.10;99.90
12870;DHT22;6503;48.572;13.460;2023-01-06T06:46:42;7.10;99.90
12870;DHT22;6503;48.572;13.460;2023-01-06T06:49:13;7.10;99.90
12870;DHT22;6503;48.572;13.460;2023-01-06T06:51:41;7.10;99.90
12870;DHT22;6503;48.572;13.460;2023-01-06T06:54:14;7.10;99.90
12870;DHT22;6503;48.572;13.460;2023-01-06T06:56:42;7.20;99.90
12870;DHT22;6503;48.572;13.460;2023-01-06T06:59:09;7.20;99.90
12870;DHT22;6503;48.572;13.460;2023-01-06T07:01:38;7.20;99.90
12870;DHT22;6503;48.572;13.460;2023-01-06T07:04:07;7.20;99.90
12870;DHT22;6503;48.572;13.460;2023-01-06T07:06:34;7.20;99.90
12870;DHT22;6503;48.572;13.460;2023-01-06T07:09:02;7.20;99.90
12870;DHT22;6503;48.572;13.460;2023-01-06T07:11:30;7.20;99.90
12870;DHT22;6503;48.572;13.460;2023-01-06T07:13:57;7.10;99.90
12870;DHT22;6503;48.572;13.460;2023-01-06T07:16:24;7.10;99.90
12870;DHT22;6503;48.572;13.460;2023-01-06T07:18:54;7.20;99.90
12870;DHT22;6503;48.572;13.460;2023-01-06T07:21:22;7.20;99.90
12870;DHT22;6503;48.572;13.460;2023-01-06T07:23:50;7.20;99.90
12870;DHT22;6503;48.572;13.460;2023-01-06T07:26:17;7.20;99.90
12870;DHT22;6503;48.572;13.460;2023-01-06T07:28:49;7.20;99.90
12870;DHT22;6503;48.572;13.460;2023-01-06T07:31:17;7.20;99.90
12870;DHT22;6503;48.572;13.460;2023-01-06T07:33:45;7.20;99.90
12870;DHT22;6503;48.572;13.460;2023-01-06T07:36:15;7.20;99.90
12870;DHT22;6503;48.572;13.460;2023-01-06T07:38:42;7.20;99.90
12870;DHT22;6503;48.572;13.460;2023-01-06T07:41:14;7.20;99.90
12870;DHT22;6503;48.572;13.460;2023-01-06T07:43:44;7.20;99.90
12870;DHT22;6503;48.572;13.460;2023-01-06T07:46:16;7.20;99.90
12870;DHT22;6503;48.572;13.460;2023-01-06T07:49:10;7.20;99.90
12870;DHT22;6503;48.572;13.460;2023-01-06T07:51:41;7.20;99.90
12870;DHT22;6503;48.572;13.460;2023-01-06T07:54:12;7.30;99.90
12870;DHT22;6503;48.572;13.460;2023-01-06T07:56:40;7.30;99.90
12870;DHT22;6503;48.572;13.460;2023-01-06T07:59:10;7.30;99.90
12870;DHT22;6503;48.572;13.460;2023-01-06T08:01:52;7.40;99.90
12870;DHT22;6503;48.572;13.460;2023-01-06T08:04:19;7.40;99.90
12870;DHT22;6503;48.572;13.460;2023-01-06T08:06:47;7.40;99.90
12870;DHT22;6503;48.572;13.460;2023-01-06T08:09:16;7.40;99.90
12870;DHT22;6503;48.572;13.460;2023-01-06T08:11:43;7.50;99.90
12870;DHT22;6503;48.572;13.460;2023-01-06T08:14:19;7.50;99.90
12870;DHT22;6503;48.572;13.460;2023-01-06T08:16:47;7.50;99.90
12870;DHT22;6503;48.572;13.460;2023-01-06T08:19:16;7.50;99.90
12870;DHT22;6503;48.572;13.460;2023-01-06T08:21:43;7.60;99.90
12870;DHT22;6503;48.572;13.460;2023-01-06T08:24:30;7.60;99.90
12870;DHT22;6503;48.572;13.460;2023-01-06T08:27:10;7.70;99.90
12870;DHT22;6503;48.572;13.460;2023-01-06T08:29:39;7.70;99.90
12870;DHT22;6503;48.572;13.460;2023-01-06T08:32:17;7.80;99.90
12870;DHT22;6503;48.572;13.460;2023-01-06T08:34:44;7.80;99.90
12870;DHT22;6503;48.572;13.460;2023-01-06T08:37:12;7.80;99.90
12870;DHT22;6503;48.572;13.460;2023-01-06T08:39:42;7.90;99.90
12870;DHT22;6503;48.572;13.460;2023-01-06T08:42:11;8.00;99.90
12870;DHT22;6503;48.572;13.460;2023-01-06T08:44:39;8.00;99.90
12870;DHT22;6503;48.572;13.460;2023-01-06T08:47:07;8.10;99.90
12870;DHT22;6503;48.572;13.460;2023-01-06T08:49:35;8.20;99.90
12870;DHT22;6503;48.572;13.460;2023-01-06T08:52:03;8.20;99.90
12870;DHT22;6503;48.572;13.460;2023-01-06T08:54:30;8.30;99.90
12870;DHT22;6503;48.572;13.460;2023-01-06T08:57:14;8.30;99.90
12870;DHT22;6503;48.572;13.460;2023-01-06T08:59:54;8.30;99.90
12870;DHT22;6503;48.572;13.460;2023-01-06T09:02:22;8.40;99.90
12870;DHT22;6503;48.572;13.460;2023-01-06T09:04:53;8.40;99.90
12870;DHT22;6503;48.572;13.460;2023-01-06T09:07:28;8.40;99.90
12870;DHT22;6503;48.572;13.460;2023-01-06T09:10:00;8.40;99.90
12870;DHT22;6503;48.572;13.460;2023-01-06T09:12:51;8.50;99.90
12870;DHT22;6503;48.572;13.460;2023-01-06T09:15:21;8.50;99.90
12870;DHT22;6503;48.572;13.460;2023-01-06T09:17:49;8.50;99.90
12870;DHT22;6503;48.572;13.460;2023-01-06T09:20:19;8.50;99.90
12870;DHT22;6503;48.572;13.460;2023-01-06T09:23:03;8.50;99.90
12870;DHT22;6503;48.572;13.460;2023-01-06T09:25:30;8.60;99.90
12870;DHT22;6503;48.572;13.460;2023-01-06T09:28:08;8.60;99.90
12870;DHT22;6503;48.572;13.460;2023-01-06T09:30:35;8.80;99.90
12870;DHT22;6503;48.572;13.460;2023-01-06T09:33:07;8.90;99.90
12870;DHT22;6503;48.572;13.460;2023-01-06T09:35:35;8.90;99.90
12870;DHT22;6503;48.572;13.460;2023-01-06T09:38:05;9.00;99.90
12870;DHT22;6503;48.572;13.460;2023-01-06T09:40:40;9.00;99.90
12870;DHT22;6503;48.572;13.460;2023-01-06T09:43:20;9.00;99.90
12870;DHT22;6503;48.572;13.460;2023-01-06T09:45:54;9.00;99.90
12870;DHT22;6503;48.572;13.460;2023-01-06T09:48:28;9.00;99.90
12870;DHT22;6503;48.572;13.460;2023-01-06T09:51:00;9.00;99.90
12870;DHT22;6503;48.572;13.460;2023-01-06T09:53:32;9.00;99.90
12870;DHT22;6503;48.572;13.460;2023-01-06T09:56:16;9.10;99.90
12870;DHT22;6503;48.572;13.460;2023-01-06T10:12:16;9.40;99.90
12870;DHT22;6503;48.572;13.460;2023-01-06T10:15:04;9.60;99.90
12870;DHT22;6503;48.572;13.460;2023-01-06T10:18:19;9.60;99.90
12870;DHT22;6503;48.572;13.460;2023-01-06T10:21:14;9.70;99.90
12870;DHT22;6503;48.572;13.460;2023-01-06T10:24:29;9.80;99.90
12870;DHT22;6503;48.572;13.460;2023-01-06T10:34:09;10.00;99.90
12870;DHT22;6503;48.572;13.460;2023-01-06T10:37:10;10.10;99.90
12870;DHT22;6503;48.572;13.460;2023-01-06T10:40:10;10.00;99.90
12870;DHT22;6503;48.572;13.460;2023-01-06T10:42:54;10.10;99.90
12870;DHT22;6503;48.572;13.460;2023-01-06T10:45:50;10.10;99.90
12870;DHT22;6503;48.572;13.460;2023-01-06T10:48:59;10.30;99.90
12870;DHT22;6503;48.572;13.460;2023-01-06T11:01:48;10.60;99.90
12870;DHT22;6503;48.572;13.460;2023-01-06T11:04:51;10.40;99.90
12870;DHT22;6503;48.572;13.460;2023-01-06T11:07:53;10.30;99.90
12870;DHT22;6503;48.572;13.460;2023-01-06T11:14:01;10.30;99.90
12870;DHT22;6503;48.572;13.460;2023-01-06T11:20:36;10.50;99.90
12870;DHT22;6503;48.572;13.460;2023-01-06T11:23:31;10.60;99.90
12870;DHT22;6503;48.572;13.460;2023-01-06T11:26:17;10.70;99.90
12870;DHT22;6503;48.572;13.460;2023-01-06T11:28:46;10.80;99.90
12870;DHT22;6503;48.572;13.460;2023-01-06T11:31:19;10.80;99.90
12870;DHT22;6503;48.572;13.460;2023-01-06T11:33:49;10.80;99.90
12870;DHT22;6503;48.572;13.460;2023-01-06T11:36:21;10.90;99.90
12870;DHT22;6503;48.572;13.460;2023-01-06T11:38:51;10.90;99.90
12870;DHT22;6503;48.572;13.460;2023-01-06T11:41:25;10.90;99.90
12870;DHT22;6503;48.572;13.460;2023-01-06T11:43:55;11.00;99.90
12870;DHT22;6503;48.572;13.460;2023-01-06T11:46:26;11.00;99.90
12870;DHT22;6503;48.572;13.460;2023-01-06T11:48:59;10.90;99.90
12870;DHT22;6503;48.572;13.460;2023-01-06T11:51:43;10.80;99.90
12870;DHT22;6503;48.572;13.460;2023-01-06T11:54:22;10.80;99.90
12870;DHT22;6503;48.572;13.460;2023-01-06T11:57:01;10.80;99.90
12870;DHT22;6503;48.572;13.460;2023-01-06T11:59:43;10.80;99.90
12870;DHT22;6503;48.572;13.460;2023-01-06T12:02:16;10.90;99.90
12870;DHT22;6503;48.572;13.460;2023-01-06T12:04:50;10.80;99.90
12870;DHT22;6503;48.572;13.460;2023-01-06T12:07:26;10.90;99.90
12870;DHT22;6503;48.572;13.460;2023-01-06T12:09:58;10.90;99.90
12870;DHT22;6503;48.572;13.460;2023-01-06T12:12:28;10.90;99.90
12870;DHT22;6503;48.572;13.460;2023-01-06T12:14:59;10.80;99.90
12870;DHT22;6503;48.572;13.460;2023-01-06T12:17:36;10.90;99.90
12870;DHT22;6503;48.572;13.460;2023-01-06T12:20:16;10.80;99.90
12870;DHT22;6503;48.572;13.460;2023-01-06T12:22:48;10.80;99.90
12870;DHT22;6503;48.572;13.460;2023-01-06T12:25:18;10.70;99.90
12870;DHT22;6503;48.572;13.460;2023-01-06T12:27:49;10.70;99.90
12870;DHT22;6503;48.572;13.460;2023-01-06T12:30:28;10.60;99.90
12870;DHT22;6503;48.572;13.460;2023-01-06T12:33:01;10.70;99.90
12870;DHT22;6503;48.572;13.460;2023-01-06T12:35:33;10.60;99.90
12870;DHT22;6503;48.572;13.460;2023-01-06T12:38:19;10.70;99.90
12870;DHT22;6503;48.572;13.460;2023-01-06T12:41:13;10.70;99.90
12870;DHT22;6503;48.572;13.460;2023-01-06T12:43:53;10.80;99.90
12870;DHT22;6503;48.572;13.460;2023-01-06T12:46:30;10.90;99.90
12870;DHT22;6503;48.572;13.460;2023-01-06T12:49:02;11.00;99.90
12870;DHT22;6503;48.572;13.460;2023-01-06T12:51:34;11.20;99.90
12870;DHT22;6503;48.572;13.460;2023-01-06T12:54:10;11.40;99.90
12870;DHT22;6503;48.572;13.460;2023-01-06T12:56:50;11.70;99.90
12870;DHT22;6503;48.572;13.460;2023-01-06T12:59:28;11.90;99.90
12870;DHT22;6503;48.572;13.460;2023-01-06T13:02:15;12.10;99.90
12870;DHT22;6503;48.572;13.460;2023-01-06T13:05:32;12.30;99.90
12870;DHT22;6503;48.572;13.460;2023-01-06T13:08:24;12.50;99.90
12870;DHT22;6503;48.572;13.460;2023-01-06T13:24:46;13.00;99.90
12870;DHT22;6503;48.572;13.460;2023-01-06T13:28:09;13.00;99.90
12870;DHT22;6503;48.572;13.460;2023-01-06T13:31:30;12.90;99.90
12870;DHT22;6503;48.572;13.460;2023-01-06T13:48:25;13.50;99.90
12870;DHT22;6503;48.572;13.460;2023-01-06T13:51:46;13.70;99.90
12870;DHT22;6503;48.572;13.460;2023-01-06T13:57:31;13.40;99.90
12870;DHT22;6503;48.572;13.460;2023-01-06T14:00:21;13.00;99.90
12870;DHT22;6503;48.572;13.460;2023-01-06T14:03:00;12.80;99.90
12870;DHT22;6503;48.572;13.460;2023-01-06T14:05:58;12.60;99.90
12870;DHT22;6503;48.572;13.460;2023-01-06T14:08:32;12.40;99.90
12870;DHT22;6503;48.572;13.460;2023-01-06T14:11:17;12.30;99.90
12870;DHT22;6503;48.572;13.460;2023-01-06T14:13:50;12.20;99.90
12870;DHT22;6503;48.572;13.460;2023-01-06T14:16:18;12.10;99.90
12870;DHT22;6503;48.572;13.460;2023-01-06T14:18:47;12.00;99.90
12870;DHT22;6503;48.572;13.460;2023-01-06T14:21:27;12.00;99.90
12870;DHT22;6503;48.572;13.460;2023-01-06T14:24:06;12.00;99.90
12870;DHT22;6503;48.572;13.460;2023-01-06T14:26:48;11.80;99.90
12870;DHT22;6503;48.572;13.460;2023-01-06T14:32:57;11.60;99.90
12870;DHT22;6503;48.572;13.460;2023-01-06T14:35:33;11.50;99.90
12870;DHT22;6503;48.572;13.460;2023-01-06T14:38:03;11.40;99.90
12870;DHT22;6503;48.572;13.460;2023-01-06T14:40:37;11.40;99.90
12870;DHT22;6503;48.572;13.460;2023-01-06T14:43:26;11.30;99.90
12870;DHT22;6503;48.572;13.460;2023-01-06T14:45:54;11.30;99.90
12870;DHT22;6503;48.572;13.460;2023-01-06T14:48:34;11.30;99.90
12870;DHT22;6503;48.572;13.460;2023-01-06T14:51:16;11.30;99.90
12870;DHT22;6503;48.572;13.460;2023-01-06T14:53:53;11.30;99.90
12870;DHT22;6503;48.572;13.460;2023-01-06T14:56:35;11.30;99.90
12870;DHT22;6503;48.572;13.460;2023-01-06T14:59:14;11.30;99.90
12870;DHT22;6503;48.572;13.460;2023-01-06T15:01:57;11.20;99.90
12870;DHT22;6503;48.572;13.460;2023-01-06T15:05:04;11.20;99.90
12870;DHT22;6503;48.572;13.460;2023-01-06T15:08:17;11.20;99.90
12870;DHT22;6503;48.572;13.460;2023-01-06T15:11:22;11.20;99.90
12870;DHT22;6503;48.572;13.460;2023-01-06T15:17:27;11.20;99.90
12870;DHT22;6503;48.572;13.460;2023-01-06T15:23:37;11.10;99.90
12870;DHT22;6503;48.572;13.460;2023-01-06T15:26:28;11.20;99.90
12870;DHT22;6503;48.572;13.460;2023-01-06T15:29:00;11.10;99.90
12870;DHT22;6503;48.572;13.460;2023-01-06T15:31:33;11.10;99.90
12870;DHT22;6503;48.572;13.460;2023-01-06T15:41:01;11.00;99.90
12870;DHT22;6503;48.572;13.460;2023-01-06T15:44:00;11.00;99.90
12870;DHT22;6503;48.572;13.460;2023-01-06T15:46:46;10.90;99.90
12870;DHT22;6503;48.572;13.460;2023-01-06T15:49:39;10.90;99.90
12870;DHT22;6503;48.572;13.460;2023-01-06T15:52:33;10.80;99.90
12870;DHT22;6503;48.572;13.460;2023-01-06T15:55:23;10.80;99.90
12870;DHT22;6503;48.572;13.460;2023-01-06T16:01:22;10.70;99.90
12870;DHT22;6503;48.572;13.460;2023-01-06T16:04:06;10.70;99.90
12870;DHT22;6503;48.572;13.460;2023-01-06T16:06:35;10.70;99.90
12870;DHT22;6503;48.572;13.460;2023-01-06T16:09:31;10.60;99.90
12870;DHT22;6503;48.572;13.460;2023-01-06T16:12:15;10.60;99.90
12870;DHT22;6503;48.572;13.460;2023-01-06T16:14:58;10.60;99.90
12870;DHT22;6503;48.572;13.460;2023-01-06T16:18:12;10.60;99.90
12870;DHT22;6503;48.572;13.460;2023-01-06T16:20:53;10.60;99.90
12870;DHT22;6503;48.572;13.460;2023-01-06T16:23:39;10.50;99.90
12870;DHT22;6503;48.572;13.460;2023-01-06T16:26:42;10.50;99.90
12870;DHT22;6503;48.572;13.460;2023-01-06T16:29:26;10.50;99.90
12870;DHT22;6503;48.572;13.460;2023-01-06T16:42:17;10.40;99.90
12870;DHT22;6503;48.572;13.460;2023-01-06T16:45:17;10.50;99.90
12870;DHT22;6503;48.572;13.460;2023-01-06T16:51:32;10.50;99.90
12870;DHT22;6503;48.572;13.460;2023-01-06T16:54:15;10.50;99.90
12870;DHT22;6503;48.572;13.460;2023-01-06T17:00:43;10.50;99.90
12870;DHT22;6503;48.572;13.460;2023-01-06T17:03:58;10.40;99.90
12870;DHT22;6503;48.572;13.460;2023-01-06T17:10:22;10.40;99.90
12870;DHT22;6503;48.572;13.460;2023-01-06T17:13:23;10.40;99.90
12870;DHT22;6503;48.572;13.460;2023-01-06T17:16:49;10.40;99.90
12870;DHT22;6503;48.572;13.460;2023-01-06T17:26:04;10.40;99.90
12870;DHT22;6503;48.572;13.460;2023-01-06T17:28:44;10.40;99.90
12870;DHT22;6503;48.572;13.460;2023-01-06T17:38:44;10.30;99.90
12870;DHT22;6503;48.572;13.460;2023-01-06T17:41:32;10.20;99.90
12870;DHT22;6503;48.572;13.460;2023-01-06T17:44:29;10.30;99.90
12870;DHT22;6503;48.572;13.460;2023-01-06T17:47:42;10.30;99.90
12870;DHT22;6503;48.572;13.460;2023-01-06T17:50:39;10.30;99.90
12870;DHT22;6503;48.572;13.460;2023-01-06T18:00:46;10.30;99.90
12870;DHT22;6503;48.572;13.460;2023-01-06T18:03:45;10.20;99.90
12870;DHT22;6503;48.572;13.460;2023-01-06T18:06:38;10.20;99.90
12870;DHT22;6503;48.572;13.460;2023-01-06T18:09:48;10.20;99.90
12870;DHT22;6503;48.572;13.460;2023-01-06T18:13:11;10.10;99.90
12870;DHT22;6503;48.572;13.460;2023-01-06T18:20:12;10.00;99.90
12870;DHT22;6503;48.572;13.460;2023-01-06T18:23:47;10.00;99.90
12870;DHT22;6503;48.572;13.460;2023-01-06T18:33:22;9.90;99.90
12870;DHT22;6503;48.572;13.460;2023-01-06T18:40:03;10.00;99.90
12870;DHT22;6503;48.572;13.460;2023-01-06T18:46:16;9.90;99.90
12870;DHT22;6503;48.572;13.460;2023-01-06T18:49:41;9.90;99.90
12870;DHT22;6503;48.572;13.460;2023-01-06T19:09:17;10.00;99.90
12870;DHT22;6503;48.572;13.460;2023-01-06T19:12:15;9.90;99.90
12870;DHT22;6503;48.572;13.460;2023-01-06T19:15:44;10.00;99.90
12870;DHT22;6503;48.572;13.460;2023-01-06T19:21:15;10.00;99.90
12870;DHT22;6503;48.572;13.460;2023-01-06T19:34:44;9.80;99.90
12870;DHT22;6503;48.572;13.460;2023-01-06T19:38:04;9.80;99.90
12870;DHT22;6503;48.572;13.460;2023-01-06T19:40:58;9.90;99.90
12870;DHT22;6503;48.572;13.460;2023-01-06T19:44:43;9.80;99.90
12870;DHT22;6503;48.572;13.460;2023-01-06T20:01:35;9.80;99.90
12870;DHT22;6503;48.572;13.460;2023-01-06T20:04:15;9.80;99.90
12870;DHT22;6503;48.572;13.460;2023-01-06T20:06:43;9.70;99.90
12870;DHT22;6503;48.572;13.460;2023-01-06T20:09:10;9.60;99.90